Time;durP1;ratioP1;P1;durP2;ratioP2;P2;SDS_P1;SDS_P2;PMS_P1;PMS_P2;Temp;Humidity;BMP_temperature;BMP_pressure;BME280_temperature;BME280_humidity;BME280_pressure;Samples;Min_cycle;Max_cycle;Signal;HPM_P1;HPM_P2
2024/01/07 00:01:24;;;;;;;28.33;16.10;;;5.80;99.90;;;;;;5046541;28;20037;-76
2024/01/07 00:03:51;;;;;;;24.55;14.32;;;5.80;99.90;;;;;;5064449;28;20043;-76
2024/01/07 00:06:17;;;;;;;25.05;14.95;;;5.70;99.90;;;;;;5051855;28;20022;-76
2024/01/07 00:08:42;;;;;;;23.17;13.80;;;5.70;99.90;;;;;;5048170;28;20106;-76
2024/01/07 00:11:08;;;;;;;23.13;14.18;;;5.70;99.90;;;;;;5064675;28;20033;-75
2024/01/07 00:13:34;;;;;;;25.15;14.02;;;5.70;99.90;;;;;;5063868;28;20028;-75
2024/01/07 00:15:59;;;;;;;25.52;13.88;;;5.60;99.90;;;;;;5054636;28;20064;-75
2024/01/07 00:18:26;;;;;;;24.80;13.35;;;5.60;99.90;;;;;;5064208;28;20315;-75
2024/01/07 00:20:53;;;;;;;23.88;13.50;;;5.60;99.90;;;;;;5063051;28;20023;-75
2024/01/07 00:23:20;;;;;;;22.90;13.32;;;5.60;99.90;;;;;;5063880;28;20056;-75
2024/01/07 00:25:47;;;;;;;24.67;14.35;;;5.70;99.90;;;;;;5063603;28;20227;-75
2024/01/07 00:28:12;;;;;;;22.38;12.88;;;5.60;99.90;;;;;;5064512;28;20323;-75
2024/01/07 00:30:38;;;;;;;23.92;13.23;;;5.70;99.90;;;;;;5063758;28;20150;-76
2024/01/07 00:33:04;;;;;;;24.27;12.98;;;5.70;99.90;;;;;;5053418;28;20037;-75
2024/01/07 00:35:29;;;;;;;23.35;13.80;;;5.70;99.90;;;;;;5043578;28;20214;-76
2024/01/07 00:37:58;;;;;;;21.13;12.95;;;5.70;99.90;;;;;;5043978;28;20095;-75
2024/01/07 00:40:24;;;;;;;22.60;12.85;;;5.70;99.90;;;;;;5043859;28;20033;-75
2024/01/07 00:42:51;;;;;;;22.75;13.20;;;5.60;99.90;;;;;;5043243;28;20215;-76
2024/01/07 00:45:17;;;;;;;24.17;13.45;;;5.60;99.90;;;;;;5059531;28;20343;-75
2024/01/07 00:47:43;;;;;;;23.08;13.70;;;5.50;99.90;;;;;;5043650;28;20141;-75
2024/01/07 00:50:09;;;;;;;24.33;13.23;;;5.50;99.90;;;;;;5058374;28;20314;-75
2024/01/07 00:52:36;;;;;;;22.90;13.05;;;5.60;99.90;;;;;;5062182;28;20246;-75
2024/01/07 00:55:06;;;;;;;24.30;13.57;;;5.60;99.90;;;;;;5053741;28;20061;-75
2024/01/07 00:57:32;;;;;;;24.83;13.73;;;5.60;99.90;;;;;;5041927;28;20025;-76
2024/01/07 01:00:00;;;;;;;23.55;13.02;;;5.60;99.90;;;;;;5043424;28;20034;-76
2024/01/07 01:02:25;;;;;;;23.63;13.57;;;5.60;99.90;;;;;;5043467;28;20037;-75
2024/01/07 01:04:51;;;;;;;24.20;12.48;;;5.60;99.90;;;;;;5043236;28;20045;-76
2024/01/07 01:07:17;;;;;;;23.33;12.88;;;5.60;99.90;;;;;;5047247;28;20088;-75
2024/01/07 01:09:42;;;;;;;21.38;12.68;;;5.60;99.90;;;;;;5043240;28;20036;-75
2024/01/07 01:12:08;;;;;;;22.85;13.27;;;5.60;99.90;;;;;;5043346;28;20350;-75
2024/01/07 01:14:34;;;;;;;26.10;12.73;;;5.50;99.90;;;;;;5042806;28;20026;-76
2024/01/07 01:16:59;;;;;;;23.40;13.23;;;5.60;99.90;;;;;;5043417;28;20033;-75
2024/01/07 01:19:25;;;;;;;20.90;12.80;;;5.50;99.90;;;;;;5043149;28;20048;-75
2024/01/07 01:21:50;;;;;;;24.27;13.75;;;5.50;99.90;;;;;;5042574;28;20033;-74
2024/01/07 01:24:16;;;;;;;25.33;14.63;;;5.60;99.90;;;;;;5045922;28;20034;-75
2024/01/07 01:26:42;;;;;;;22.67;12.68;;;5.60;99.90;;;;;;5042789;28;20052;-75
2024/01/07 01:29:08;;;;;;;21.27;13.27;;;5.60;99.90;;;;;;5043203;28;20022;-74
2024/01/07 01:31:33;;;;;;;23.17;12.50;;;5.60;99.90;;;;;;5042303;28;20342;-75
2024/01/07 01:34:02;;;;;;;22.27;13.05;;;5.60;99.90;;;;;;5042925;28;20303;-75
2024/01/07 01:36:28;;;;;;;22.20;13.70;;;5.60;99.90;;;;;;5042587;28;20033;-75
2024/01/07 01:38:53;;;;;;;21.58;12.95;;;5.60;99.90;;;;;;5058368;28;20066;-75
2024/01/07 01:41:19;;;;;;;23.27;13.02;;;5.60;99.90;;;;;;5043573;28;20225;-75
2024/01/07 01:43:45;;;;;;;26.38;13.88;;;5.60;99.90;;;;;;5044864;28;20025;-75
2024/01/07 01:46:11;;;;;;;25.75;13.75;;;5.60;99.90;;;;;;5058037;28;20056;-75
2024/01/07 01:48:37;;;;;;;23.40;13.43;;;5.50;99.90;;;;;;5042270;28;20057;-75
2024/01/07 01:51:03;;;;;;;26.13;14.57;;;5.50;99.90;;;;;;5042504;28;20285;-74
2024/01/07 01:53:30;;;;;;;25.40;13.93;;;5.60;99.90;;;;;;5042227;28;20117;-75
2024/01/07 01:55:57;;;;;;;27.02;13.90;;;5.60;99.90;;;;;;5042813;28;20084;-75
2024/01/07 01:58:24;;;;;;;24.10;13.68;;;5.60;99.90;;;;;;5042463;28;20021;-75
2024/01/07 02:00:53;;;;;;;29.15;14.70;;;5.60;99.90;;;;;;5060806;28;20053;-75
2024/01/07 02:03:19;;;;;;;25.83;14.52;;;5.60;99.90;;;;;;5060402;28;20290;-75
2024/01/07 02:05:45;;;;;;;27.25;14.30;;;5.50;99.90;;;;;;5061989;28;20033;-75
2024/01/07 02:08:11;;;;;;;27.20;14.00;;;5.60;99.90;;;;;;5062302;28;20021;-75
2024/01/07 02:10:37;;;;;;;28.08;14.35;;;5.50;99.90;;;;;;5061992;28;20059;-76
2024/01/07 02:13:06;;;;;;;28.00;15.20;;;5.50;99.90;;;;;;5062086;28;20045;-76
2024/01/07 02:15:31;;;;;;;27.20;14.73;;;5.60;99.90;;;;;;5061997;28;20043;-76
2024/01/07 02:17:57;;;;;;;29.02;14.77;;;5.50;99.90;;;;;;5043123;28;20024;-74
2024/01/07 02:20:23;;;;;;;28.70;15.10;;;5.60;99.90;;;;;;5045564;28;20029;-77
2024/01/07 02:22:49;;;;;;;29.58;15.27;;;5.60;99.90;;;;;;5041575;28;20062;-78
2024/01/07 02:25:15;;;;;;;29.45;14.52;;;5.50;99.90;;;;;;5042329;28;20370;-75
2024/01/07 02:27:40;;;;;;;27.40;14.57;;;5.60;99.90;;;;;;5041836;28;20304;-76
2024/01/07 02:30:07;;;;;;;29.35;16.52;;;5.60;99.90;;;;;;5042093;28;20029;-75
2024/01/07 02:32:35;;;;;;;31.58;16.25;;;5.50;99.90;;;;;;5057118;28;20115;-75
2024/01/07 02:35:01;;;;;;;27.50;15.35;;;5.50;99.90;;;;;;5046093;28;20079;-75
2024/01/07 02:37:26;;;;;;;26.95;15.13;;;5.50;99.90;;;;;;5042051;28;20387;-75
2024/01/07 02:39:52;;;;;;;28.40;15.32;;;5.50;99.90;;;;;;5042167;28;20022;-77
2024/01/07 02:42:18;;;;;;;29.20;15.77;;;5.50;99.90;;;;;;5042109;28;20040;-75
2024/01/07 02:44:43;;;;;;;27.40;14.95;;;5.60;99.90;;;;;;5042643;28;20060;-75
2024/01/07 02:47:09;;;;;;;29.13;15.85;;;5.50;99.90;;;;;;5046265;28;20048;-75
2024/01/07 02:49:35;;;;;;;30.67;16.27;;;5.50;99.90;;;;;;5044355;28;20029;-75
2024/01/07 02:52:00;;;;;;;26.92;15.55;;;5.60;99.90;;;;;;5049648;28;20092;-75
2024/01/07 02:54:26;;;;;;;26.95;15.98;;;5.60;99.90;;;;;;5045760;28;20025;-75
2024/01/07 02:56:52;;;;;;;27.63;15.90;;;5.60;99.90;;;;;;5045460;28;20057;-74
2024/01/07 02:59:17;;;;;;;27.25;15.68;;;5.60;99.90;;;;;;5046031;28;20036;-75
2024/01/07 03:01:43;;;;;;;26.27;15.68;;;5.60;99.90;;;;;;5049566;28;20079;-74
2024/01/07 03:04:11;;;;;;;25.35;15.68;;;5.60;99.90;;;;;;5065551;28;20017;-74
2024/01/07 03:06:37;;;;;;;25.50;15.48;;;5.60;99.90;;;;;;5065040;28;20146;-74
2024/01/07 03:09:02;;;;;;;26.90;15.02;;;5.60;99.90;;;;;;5065799;28;20307;-74
2024/01/07 03:11:31;;;;;;;29.73;16.05;;;5.60;99.90;;;;;;5048998;28;20144;-75
2024/01/07 03:13:56;;;;;;;;;;;5.60;99.90;;;;;;5045891;28;20385;-75
2024/01/07 03:16:23;;;;;;;28.13;14.90;;;5.60;99.90;;;;;;5045397;28;19937;-74
2024/01/07 03:18:49;;;;;;;26.05;15.38;;;5.60;99.90;;;;;;5044729;28;20180;-75
2024/01/07 03:21:22;;;;;;;24.65;14.52;;;5.60;99.90;;;;;;5044152;28;20055;-75
2024/01/07 03:23:49;;;;;;;26.83;14.75;;;5.60;99.90;;;;;;5045079;28;20055;-74
2024/01/07 03:26:16;;;;;;;26.65;15.85;;;5.60;99.90;;;;;;5046966;28;20092;-75
2024/01/07 03:28:42;;;;;;;28.80;15.52;;;5.60;99.90;;;;;;5062563;28;20048;-74
2024/01/07 03:31:13;;;;;;;24.95;14.85;;;5.50;99.90;;;;;;5045122;28;20085;-74
2024/01/07 03:33:39;;;;;;;26.45;16.13;;;5.60;99.90;;;;;;5044683;28;20048;-75
2024/01/07 03:36:12;;;;;;;24.45;14.85;;;5.60;99.90;;;;;;5045322;28;20036;-75
2024/01/07 03:38:39;;;;;;;24.45;14.75;;;5.50;99.90;;;;;;5044394;28;20037;-75
2024/01/07 03:41:05;;;;;;;24.48;14.68;;;5.60;99.90;;;;;;5043868;28;20220;-75
2024/01/07 03:43:31;;;;;;;25.05;14.20;;;5.60;99.90;;;;;;5047817;28;20021;-75
2024/01/07 03:45:58;;;;;;;24.40;14.55;;;5.50;99.90;;;;;;5045194;28;20017;-75
2024/01/07 03:48:24;;;;;;;24.17;14.00;;;5.50;99.90;;;;;;5044952;28;20059;-74
2024/01/07 03:50:50;;;;;;;23.95;13.98;;;5.50;99.90;;;;;;5043953;28;20029;-74
2024/01/07 03:53:16;;;;;;;24.27;15.25;;;5.40;99.90;;;;;;5044959;28;20040;-74
2024/01/07 03:55:42;;;;;;;23.75;14.32;;;5.40;99.90;;;;;;5043729;28;20033;-74
2024/01/07 03:58:07;;;;;;;24.08;14.45;;;5.30;99.90;;;;;;5044230;28;20025;-75
2024/01/07 04:00:34;;;;;;;23.30;14.35;;;5.30;99.90;;;;;;5044107;28;20033;-75
2024/01/07 04:03:01;;;;;;;25.15;14.07;;;5.30;99.90;;;;;;5048403;28;20037;-75
2024/01/07 04:05:26;;;;;;;22.98;14.00;;;5.30;99.90;;;;;;5044730;28;20037;-75
2024/01/07 04:07:52;;;;;;;24.08;14.52;;;5.20;99.90;;;;;;5043908;28;20033;-75
2024/01/07 04:10:18;;;;;;;27.40;15.15;;;5.20;99.90;;;;;;5044847;28;20029;-75
2024/01/07 04:12:47;;;;;;;23.20;13.68;;;5.20;99.90;;;;;;5043800;28;20045;-75
2024/01/07 04:15:12;;;;;;;23.75;13.55;;;5.20;99.90;;;;;;5044655;28;20017;-75
2024/01/07 04:17:41;;;;;;;21.80;13.27;;;5.20;99.90;;;;;;5044315;28;20346;-75
2024/01/07 04:20:08;;;;;;;22.52;14.48;;;5.20;99.90;;;;;;5047696;28;20087;-75
2024/01/07 04:22:39;;;;;;;25.88;13.57;;;5.20;99.90;;;;;;5043964;28;20055;-75
2024/01/07 04:25:10;;;;;;;23.65;13.65;;;5.20;99.90;;;;;;5044233;28;20056;-75
2024/01/07 04:27:36;;;;;;;23.70;13.57;;;5.30;99.90;;;;;;5059379;28;20313;-75
2024/01/07 04:30:03;;;;;;;26.88;14.50;;;5.30;99.90;;;;;;5044406;28;20014;-75
2024/01/07 04:32:32;;;;;;;23.67;13.77;;;5.30;99.90;;;;;;5043557;28;20104;-76
2024/01/07 04:35:00;;;;;;;23.95;13.18;;;5.30;99.90;;;;;;5044423;28;20080;-75
2024/01/07 04:37:26;;;;;;;24.23;13.40;;;5.30;99.90;;;;;;5046298;28;20326;-76
2024/01/07 04:39:52;;;;;;;22.65;13.25;;;5.30;99.90;;;;;;5044898;28;20021;-74
2024/01/07 04:42:18;;;;;;;24.92;14.55;;;5.30;99.90;;;;;;5044177;28;20358;-75
2024/01/07 04:44:44;;;;;;;25.08;13.27;;;5.30;99.90;;;;;;5043668;28;20044;-75
2024/01/07 04:47:29;;;;;;;22.33;13.35;;;5.30;99.90;;;;;;5043631;28;20355;-76
2024/01/07 04:49:55;;;;;;;23.38;13.45;;;5.30;99.90;;;;;;5043875;28;20033;-75
2024/01/07 04:52:24;;;;;;;22.65;13.40;;;5.30;99.90;;;;;;5043726;28;20037;-75
2024/01/07 04:54:51;;;;;;;23.52;13.00;;;5.30;99.90;;;;;;5046554;28;20044;-75
2024/01/07 04:57:18;;;;;;;23.88;13.10;;;5.20;99.90;;;;;;5043969;28;20058;-76
2024/01/07 04:59:43;;;;;;;21.13;12.50;;;5.30;99.90;;;;;;5043179;28;20033;-76
2024/01/07 05:02:09;;;;;;;23.08;13.43;;;5.30;99.90;;;;;;5052003;28;20131;-76
2024/01/07 05:04:36;;;;;;;22.33;12.60;;;5.30;99.90;;;;;;5063200;28;20020;-75
2024/01/07 05:07:02;;;;;;;24.67;12.90;;;5.30;99.90;;;;;;5063175;28;20052;-76
2024/01/07 05:09:32;;;;;;;23.50;12.20;;;5.30;99.90;;;;;;5063198;28;20066;-75
2024/01/07 05:11:57;;;;;;;20.23;11.90;;;5.30;99.90;;;;;;5046994;28;20034;-76
2024/01/07 05:14:23;;;;;;;20.55;12.07;;;5.30;99.90;;;;;;5043089;28;20025;-76
2024/01/07 05:16:49;;;;;;;21.98;11.80;;;5.30;99.90;;;;;;5043008;28;20316;-76
2024/01/07 05:19:15;;;;;;;18.75;11.00;;;5.30;99.90;;;;;;5043519;28;20297;-75
2024/01/07 05:21:40;;;;;;;22.23;11.30;;;5.30;99.90;;;;;;5042483;28;20031;-76
2024/01/07 05:24:06;;;;;;;21.80;11.13;;;5.30;99.90;;;;;;5043215;28;20228;-75
2024/01/07 05:26:42;;;;;;;19.75;10.88;;;5.30;99.90;;;;;;5043036;28;20268;-76
2024/01/07 05:29:11;;;;;;;19.83;11.45;;;5.30;99.90;;;;;;5046286;28;20059;-75
2024/01/07 05:31:40;;;;;;;18.10;10.50;;;5.30;99.90;;;;;;5042897;28;20403;-75
2024/01/07 05:34:06;;;;;;;21.70;10.88;;;5.30;99.90;;;;;;5042964;28;20385;-75
2024/01/07 05:36:32;;;;;;;20.40;10.75;;;5.30;99.90;;;;;;5042477;28;20040;-76
2024/01/07 05:39:01;;;;;;;18.75;10.98;;;5.30;99.90;;;;;;5043054;28;20033;-76
2024/01/07 05:41:27;;;;;;;19.67;11.68;;;5.30;99.90;;;;;;5043221;28;20017;-75
2024/01/07 05:43:52;;;;;;;18.02;10.20;;;5.30;99.90;;;;;;5042354;28;20340;-76
2024/01/07 05:46:18;;;;;;;18.33;10.32;;;5.30;99.90;;;;;;5045309;28;20048;-75
2024/01/07 05:48:46;;;;;;;18.17;10.50;;;5.20;99.90;;;;;;5042803;28;20029;-76
2024/01/07 05:51:12;;;;;;;17.83;10.20;;;5.20;99.90;;;;;;5042902;28;20061;-76
2024/01/07 05:53:41;;;;;;;16.77;9.43;;;5.20;99.90;;;;;;5042310;28;20472;-75
2024/01/07 05:56:07;;;;;;;17.52;10.68;;;5.20;99.90;;;;;;5042658;28;20021;-76
2024/01/07 05:58:33;;;;;;;19.00;10.55;;;5.20;99.90;;;;;;5041921;28;20276;-75
2024/01/07 06:01:00;;;;;;;17.13;9.43;;;5.20;99.90;;;;;;5042474;28;20025;-75
2024/01/07 06:03:26;;;;;;;17.08;9.77;;;5.20;99.90;;;;;;5053255;28;20025;-75
2024/01/07 06:05:51;;;;;;;16.70;9.80;;;5.20;99.90;;;;;;5041782;28;20205;-76
2024/01/07 06:08:17;;;;;;;18.05;10.60;;;5.20;99.90;;;;;;5042723;28;20036;-75
2024/01/07 06:10:43;;;;;;;16.23;9.35;;;5.20;99.90;;;;;;5042061;28;20196;-75
2024/01/07 06:13:09;;;;;;;16.52;9.50;;;5.20;99.90;;;;;;5057930;28;20060;-76
2024/01/07 06:15:34;;;;;;;18.25;9.57;;;5.20;99.90;;;;;;5041823;28;20106;-76
2024/01/07 06:18:00;;;;;;;17.58;9.98;;;5.20;99.90;;;;;;5042601;28;20017;-76
2024/01/07 06:20:25;;;;;;;16.95;10.23;;;5.20;99.90;;;;;;5044796;28;20029;-75
2024/01/07 06:22:51;;;;;;;18.08;10.35;;;5.20;99.90;;;;;;5040508;28;20037;-76
2024/01/07 06:25:17;;;;;;;19.38;9.98;;;5.20;99.90;;;;;;5042236;28;20059;-76
2024/01/07 06:27:42;;;;;;;17.90;10.57;;;5.20;99.90;;;;;;5041754;28;20096;-76
2024/01/07 06:30:09;;;;;;;18.33;10.13;;;5.20;99.90;;;;;;5042240;28;20072;-75
2024/01/07 06:32:35;;;;;;;17.88;9.90;;;5.20;99.90;;;;;;5041646;28;20033;-76
2024/01/07 06:35:01;;;;;;;15.75;9.77;;;5.20;99.90;;;;;;5042469;28;20045;-76
2024/01/07 06:37:29;;;;;;;17.02;9.82;;;5.20;99.90;;;;;;5046056;28;20111;-76
2024/01/07 06:39:55;;;;;;;17.95;10.23;;;5.20;99.90;;;;;;5042238;28;20101;-76
2024/01/07 06:42:20;;;;;;;17.00;10.18;;;5.20;99.90;;;;;;5042248;28;20205;-75
2024/01/07 06:44:46;;;;;;;17.27;10.05;;;5.20;99.90;;;;;;5041621;28;20036;-75
2024/01/07 06:47:12;;;;;;;17.38;9.77;;;5.20;99.90;;;;;;5042146;28;20259;-75
2024/01/07 06:49:38;;;;;;;18.70;10.77;;;5.20;99.90;;;;;;5041894;28;20040;-76
2024/01/07 06:52:05;;;;;;;16.70;10.75;;;5.20;99.90;;;;;;5042161;28;20255;-75
2024/01/07 06:54:30;;;;;;;15.38;10.20;;;5.10;99.90;;;;;;5045137;28;20022;-75
2024/01/07 06:56:56;;;;;;;18.15;9.88;;;5.10;99.90;;;;;;5041622;28;20041;-76
2024/01/07 06:59:22;;;;;;;14.10;9.48;;;5.10;99.90;;;;;;5041801;28;20098;-76
2024/01/07 07:01:47;;;;;;;14.65;9.88;;;5.10;99.90;;;;;;5046729;28;20021;-76
2024/01/07 07:04:13;;;;;;;14.20;9.38;;;5.10;99.90;;;;;;5061961;28;20051;-76
2024/01/07 07:06:39;;;;;;;14.57;9.35;;;5.10;99.90;;;;;;5061388;28;20030;-76
2024/01/07 07:09:04;;;;;;;18.67;10.23;;;5.10;99.90;;;;;;5058024;28;20021;-75
2024/01/07 07:11:31;;;;;;;17.38;9.23;;;5.10;99.90;;;;;;5059273;28;20021;-76
2024/01/07 07:13:57;;;;;;;14.20;9.02;;;5.10;99.90;;;;;;5061510;28;20331;-76
2024/01/07 07:16:23;;;;;;;13.32;9.38;;;5.10;99.90;;;;;;5061909;28;20085;-75
2024/01/07 07:18:48;;;;;;;16.10;9.98;;;5.00;99.90;;;;;;5061084;28;20308;-76
2024/01/07 07:21:14;;;;;;;15.35;9.00;;;5.00;99.90;;;;;;5062212;28;20029;-77
2024/01/07 07:23:42;;;;;;;12.30;7.82;;;5.00;99.90;;;;;;5061106;28;20021;-75
2024/01/07 07:26:08;;;;;;;;;;;5.00;99.90;;;;;;5062312;28;20223;-75
2024/01/07 07:28:36;;;;;;;12.10;7.53;;;5.00;99.90;;;;;;5045202;28;19983;-75
2024/01/07 07:31:02;;;;;;;11.77;7.95;;;4.90;99.90;;;;;;5042957;28;20033;-75
2024/01/07 07:33:28;;;;;;;10.88;7.30;;;5.00;99.90;;;;;;5044511;28;20037;-76
2024/01/07 07:35:54;;;;;;;12.90;7.45;;;4.90;99.90;;;;;;5045404;28;20041;-74
2024/01/07 07:38:19;;;;;;;10.85;6.88;;;4.90;99.90;;;;;;5045381;28;20355;-76
2024/01/07 07:40:52;;;;;;;13.40;7.63;;;4.80;99.90;;;;;;5044801;28;20105;-75
2024/01/07 07:43:20;;;;;;;12.88;7.70;;;4.80;99.90;;;;;;5045033;28;20036;-75
2024/01/07 07:45:46;;;;;;;11.23;7.03;;;4.80;99.90;;;;;;5046679;28;20038;-76
2024/01/07 07:48:12;;;;;;;12.65;7.25;;;4.70;99.90;;;;;;5045152;28;20092;-75
2024/01/07 07:50:38;;;;;;;12.27;7.22;;;4.80;99.90;;;;;;5044133;28;20034;-74
2024/01/07 07:53:03;;;;;;;10.18;6.78;;;4.80;99.90;;;;;;5044883;28;20320;-75
2024/01/07 07:55:29;;;;;;;11.93;7.43;;;4.80;99.90;;;;;;5044444;28;20093;-75
2024/01/07 07:57:55;;;;;;;11.05;6.70;;;4.70;99.90;;;;;;5043444;28;20255;-75
2024/01/07 08:00:21;;;;;;;11.23;6.72;;;4.80;99.90;;;;;;5044707;28;20060;-76
2024/01/07 08:02:46;;;;;;;9.57;6.53;;;4.80;99.90;;;;;;5057132;28;20039;-75
2024/01/07 08:05:12;;;;;;;12.38;6.82;;;4.80;99.90;;;;;;5047229;28;20025;-74
2024/01/07 08:07:38;;;;;;;11.77;7.18;;;4.80;99.90;;;;;;5043974;28;20038;-74
2024/01/07 08:10:04;;;;;;;11.30;6.57;;;4.70;99.90;;;;;;5044817;28;20060;-76
2024/01/07 08:12:30;;;;;;;10.23;6.68;;;4.70;99.90;;;;;;5043991;28;20205;-76
2024/01/07 08:14:55;;;;;;;10.48;6.88;;;4.80;99.90;;;;;;5044505;28;20091;-75
2024/01/07 08:17:21;;;;;;;10.40;6.43;;;4.80;99.90;;;;;;5044859;28;20307;-75
2024/01/07 08:19:47;;;;;;;11.45;6.38;;;4.70;99.90;;;;;;5045207;28;20037;-75
2024/01/07 08:22:12;;;;;;;11.07;7.15;;;4.70;99.90;;;;;;5047823;28;20029;-75
2024/01/07 08:24:41;;;;;;;10.25;6.28;;;4.80;99.90;;;;;;5043792;28;20021;-77
2024/01/07 08:27:07;;;;;;;10.98;5.72;;;4.70;99.90;;;;;;5044338;28;20017;-75
2024/01/07 08:29:33;;;;;;;10.60;6.00;;;4.70;99.90;;;;;;5047620;28;20092;-76
2024/01/07 08:31:58;;;;;;;11.07;5.90;;;4.70;99.90;;;;;;5044571;28;20374;-74
2024/01/07 08:34:24;;;;;;;10.98;5.72;;;4.70;99.90;;;;;;5044486;28;20025;-75
2024/01/07 08:36:50;;;;;;;10.30;5.50;;;4.70;99.90;;;;;;5043762;28;20094;-76
2024/01/07 08:39:15;;;;;;;10.82;5.95;;;4.70;99.90;;;;;;5044345;28;20029;-76
2024/01/07 08:41:41;;;;;;;9.30;5.85;;;4.60;99.90;;;;;;5043361;28;20017;-76
2024/01/07 08:44:10;;;;;;;10.07;6.03;;;4.60;99.90;;;;;;5043399;28;20037;-78
2024/01/07 08:46:36;;;;;;;9.18;5.75;;;4.60;99.90;;;;;;5046888;28;20366;-75
2024/01/07 08:49:02;;;;;;;13.73;7.10;;;4.50;99.90;;;;;;5043580;28;20086;-76
2024/01/07 08:51:29;;;;;;;11.52;6.30;;;4.50;99.90;;;;;;5043254;28;20029;-75
2024/01/07 08:53:57;;;;;;;11.15;6.80;;;4.50;99.90;;;;;;5043438;28;20087;-76
2024/01/07 08:56:22;;;;;;;;;;;4.60;99.90;;;;;;5044498;28;20017;-76
2024/01/07 08:58:49;;;;;;;11.63;6.93;;;4.50;99.90;;;;;;5059002;28;19921;-75
2024/01/07 09:01:15;;;;;;;10.73;6.47;;;4.50;99.90;;;;;;5048597;28;20028;-75
2024/01/07 09:03:41;;;;;;;10.63;5.97;;;4.50;99.90;;;;;;5045979;28;20110;-73
2024/01/07 09:06:07;;;;;;;11.88;6.72;;;4.60;99.90;;;;;;5054145;28;20090;-75
2024/01/07 09:08:34;;;;;;;10.82;6.57;;;4.60;99.90;;;;;;5062771;28;20067;-73
2024/01/07 09:11:01;;;;;;;11.13;6.55;;;4.60;99.90;;;;;;5062453;28;20021;-75
2024/01/07 09:13:27;;;;;;;11.10;5.65;;;4.60;99.90;;;;;;5062163;28;20048;-75
2024/01/07 09:15:53;;;;;;;8.15;4.65;;;4.60;99.90;;;;;;5058975;28;20037;-74
2024/01/07 09:18:19;;;;;;;9.10;4.47;;;4.60;99.90;;;;;;5046492;28;20013;-75
2024/01/07 09:20:44;;;;;;;8.38;4.28;;;4.60;99.90;;;;;;5077287;28;20029;-73
2024/01/07 09:23:14;;;;;;;7.63;4.55;;;4.60;99.90;;;;;;5062457;28;20036;-74
2024/01/07 09:25:41;;;;;;;6.30;3.40;;;4.70;99.90;;;;;;5062879;28;20341;-75
2024/01/07 09:28:07;;;;;;;7.80;3.80;;;4.70;99.90;;;;;;5062305;28;20036;-75
2024/01/07 09:30:36;;;;;;;9.00;3.85;;;4.70;99.90;;;;;;5061604;28;20078;-76
2024/01/07 09:33:01;;;;;;;6.80;4.03;;;4.80;99.90;;;;;;5062989;28;20051;-74
2024/01/07 09:35:33;;;;;;;6.18;3.53;;;4.70;99.90;;;;;;5056786;28;20021;-75
2024/01/07 09:37:58;;;;;;;7.97;4.22;;;4.80;99.90;;;;;;5043200;28;20037;-74
2024/01/07 09:40:24;;;;;;;6.20;3.95;;;4.80;99.90;;;;;;5043402;28;20017;-74
2024/01/07 09:42:50;;;;;;;6.47;4.32;;;4.80;99.90;;;;;;5042493;28;20187;-75
2024/01/07 09:45:18;;;;;;;7.18;3.90;;;4.80;99.90;;;;;;5042990;28;20033;-74
2024/01/07 09:47:45;;;;;;;8.07;4.60;;;4.90;99.90;;;;;;5042511;28;20041;-77
2024/01/07 09:50:11;;;;;;;7.13;4.13;;;4.90;99.90;;;;;;5042964;28;20044;-76
2024/01/07 09:52:42;;;;;;;6.18;3.83;;;4.90;99.90;;;;;;5044570;28;20037;-76
2024/01/07 09:55:09;;;;;;;7.35;4.10;;;4.80;99.90;;;;;;5042195;28;20022;-75
2024/01/07 09:57:36;;;;;;;5.88;3.40;;;4.80;99.90;;;;;;5041176;28;20033;-77
2024/01/07 10:00:05;;;;;;;6.13;3.50;;;4.80;99.90;;;;;;5042881;28;20308;-74
2024/01/07 10:02:40;;;;;;;5.13;3.53;;;4.80;99.90;;;;;;5069025;28;20013;-73
2024/01/07 10:05:12;;;;;;;8.00;3.90;;;4.90;99.90;;;;;;5057933;28;20025;-74
2024/01/07 10:07:38;;;;;;;6.32;4.13;;;4.90;99.90;;;;;;5042047;28;20033;-76
2024/01/07 10:10:17;;;;;;;6.40;3.95;;;4.80;99.90;;;;;;5043302;28;20054;-75
2024/01/07 10:12:46;;;;;;;7.93;4.78;;;4.80;99.90;;;;;;5054008;28;20041;-72
2024/01/07 10:15:13;;;;;;;7.13;4.15;;;4.70;99.90;;;;;;5050271;28;20032;-75
2024/01/07 10:17:42;;;;;;;7.68;4.50;;;4.70;99.90;;;;;;5051359;28;20370;-73
2024/01/07 10:20:09;;;;;;;7.57;4.32;;;4.70;99.90;;;;;;5051675;28;20080;-74
2024/01/07 10:22:37;;;;;;;6.53;4.45;;;4.60;99.90;;;;;;5051679;28;20307;-76
2024/01/07 10:25:04;;;;;;;7.20;4.60;;;4.70;99.90;;;;;;5049889;28;20021;-75
2024/01/07 10:27:29;;;;;;;7.32;3.88;;;4.70;99.90;;;;;;5041867;28;20127;-74
2024/01/07 10:29:58;;;;;;;8.27;4.65;;;4.60;99.90;;;;;;5045580;28;20300;-75
2024/01/07 10:32:24;;;;;;;6.78;4.43;;;4.60;99.90;;;;;;5042081;28;20037;-75
2024/01/07 10:34:57;;;;;;;7.88;4.82;;;4.50;99.90;;;;;;5041756;28;20034;-74
2024/01/07 10:37:23;;;;;;;7.90;4.47;;;4.50;99.90;;;;;;5042254;28;20033;-76
2024/01/07 10:39:49;;;;;;;9.55;5.25;;;4.50;99.90;;;;;;5056374;28;20036;-75
2024/01/07 10:42:18;;;;;;;7.57;4.93;;;4.50;99.90;;;;;;5041760;28;20356;-75
2024/01/07 10:44:44;;;;;;;8.57;4.70;;;4.40;99.90;;;;;;5044931;28;20100;-76
2024/01/07 10:47:11;;;;;;;7.75;4.43;;;4.30;99.90;;;;;;5053558;28;20316;-74
2024/01/07 10:49:44;;;;;;;9.63;5.65;;;4.30;99.90;;;;;;5041201;28;20320;-75
2024/01/07 10:52:11;;;;;;;7.80;4.90;;;4.30;99.90;;;;;;5045781;28;20037;-74
2024/01/07 10:54:39;;;;;;;8.52;5.40;;;4.20;99.90;;;;;;5049648;28;20212;-76
2024/01/07 10:57:10;;;;;;;8.52;5.25;;;4.20;99.90;;;;;;5052203;28;20259;-76
2024/01/07 10:59:37;;;;;;;8.98;5.18;;;4.30;99.90;;;;;;5054926;28;20032;-75
2024/01/07 11:02:03;;;;;;;9.38;5.30;;;4.30;99.90;;;;;;5054469;28;20025;-76
2024/01/07 11:04:51;;;;;;;8.15;5.03;;;4.30;99.90;;;;;;5057177;28;20031;-76
2024/01/07 11:07:37;;;;;;;7.78;5.00;;;4.30;99.90;;;;;;5049213;28;20032;-74
2024/01/07 11:10:17;;;;;;;10.70;5.68;;;4.30;99.90;;;;;;5065440;28;20357;-73
2024/01/07 11:12:43;;;;;;;9.43;5.05;;;4.40;99.90;;;;;;5045066;28;20049;-74
2024/01/07 11:15:10;;;;;;;7.55;4.60;;;4.30;99.90;;;;;;5045449;28;20072;-76
2024/01/07 11:17:35;;;;;;;8.98;5.38;;;4.30;99.90;;;;;;5045279;28;20037;-74
2024/01/07 11:20:02;;;;;;;8.35;5.30;;;4.30;99.90;;;;;;5057130;28;20083;-75
2024/01/07 11:22:28;;;;;;;9.98;5.38;;;4.40;99.90;;;;;;5048382;28;20041;-77
2024/01/07 11:24:56;;;;;;;7.97;5.13;;;4.30;99.90;;;;;;5045354;28;20048;-76
2024/01/07 11:27:22;;;;;;;7.07;4.83;;;4.30;99.90;;;;;;5045194;28;20076;-75
2024/01/07 11:30:05;;;;;;;8.90;4.80;;;4.30;99.90;;;;;;5048687;28;20439;-75
2024/01/07 11:32:32;;;;;;;7.88;4.78;;;4.30;99.90;;;;;;5065040;28;20055;-75
2024/01/07 11:34:59;;;;;;;6.53;4.18;;;4.30;99.90;;;;;;5065361;28;20033;-77
2024/01/07 11:37:25;;;;;;;7.25;4.50;;;4.30;99.90;;;;;;5047396;28;20043;-77
2024/01/07 11:40:16;;;;;;;6.53;4.45;;;4.30;99.90;;;;;;5063456;28;20293;-76
2024/01/07 11:42:45;;;;;;;7.15;4.30;;;4.40;99.90;;;;;;5064610;28;20037;-75
2024/01/07 11:45:17;;;;;;;9.50;4.97;;;4.30;99.90;;;;;;5071135;28;20044;-77
2024/01/07 11:47:42;;;;;;;7.05;4.45;;;4.30;99.90;;;;;;5084179;28;20258;-77
2024/01/07 11:50:08;;;;;;;6.90;4.38;;;4.30;99.90;;;;;;5080194;28;20037;-74
2024/01/07 11:52:36;;;;;;;8.00;5.15;;;4.30;99.90;;;;;;5064320;28;20040;-75
2024/01/07 11:55:02;;;;;;;5.90;3.58;;;4.30;99.90;;;;;;5047180;28;20021;-78
2024/01/07 11:58:02;;;;;;;7.38;4.68;;;4.20;99.90;;;;;;5056975;28;20055;-78
2024/01/07 12:00:33;;;;;;;8.85;5.13;;;4.20;99.90;;;;;;5058802;28;20308;-78
2024/01/07 12:03:02;;;;;;;8.02;4.90;;;4.20;99.90;;;;;;5046601;28;20323;-76
2024/01/07 12:05:29;;;;;;;8.05;5.22;;;4.10;99.90;;;;;;5058213;28;20116;-77
2024/01/07 12:07:55;;;;;;;8.98;5.30;;;4.10;99.90;;;;;;5063070;28;20039;-75
2024/01/07 12:10:21;;;;;;;7.25;4.80;;;4.00;99.90;;;;;;5045757;28;20028;-77
2024/01/07 12:12:47;;;;;;;7.57;4.90;;;4.00;99.90;;;;;;5043979;28;20032;-75
2024/01/07 12:15:13;;;;;;;8.95;5.78;;;4.00;99.90;;;;;;5056271;28;20083;-75
2024/01/07 12:17:40;;;;;;;8.40;5.15;;;3.90;99.90;;;;;;5057679;28;20311;-75
2024/01/07 12:20:07;;;;;;;9.73;5.72;;;3.90;99.90;;;;;;5050287;28;20036;-77
2024/01/07 12:22:33;;;;;;;8.57;5.70;;;3.80;99.90;;;;;;5042606;28;20295;-76
2024/01/07 12:25:05;;;;;;;9.18;5.43;;;3.80;99.90;;;;;;5043475;28;20048;-76
2024/01/07 12:28:18;;;;;;;10.60;6.28;;;3.80;99.90;;;;;;5051898;28;20028;-77
2024/01/07 12:31:12;;;;;;;10.10;6.25;;;3.80;99.90;;;;;;5039018;28;20056;-76
2024/01/07 12:33:58;;;;;;;9.20;5.43;;;3.80;99.90;;;;;;5030488;28;20099;-76
2024/01/07 12:36:54;;;;;;;10.95;6.38;;;3.80;99.90;;;;;;5041788;28;20067;-75
2024/01/07 12:39:26;;;;;;;9.25;5.82;;;3.80;99.90;;;;;;5034958;28;20367;-76
2024/01/07 12:41:52;;;;;;;10.23;6.30;;;3.70;99.90;;;;;;5004323;28;20038;-75
2024/01/07 12:44:18;;;;;;;10.02;6.32;;;3.70;99.90;;;;;;5021927;28;20478;-76
2024/01/07 12:46:48;;;;;;;10.52;6.13;;;3.70;99.90;;;;;;5042362;28;20045;-76